Hauptseite
METAR-TAF:

METAR-TAF

Flughäfen :

Albert, Frankreich

Flughafen Albert-Picardie

Breite: 49-58-21N, Länge: 002-41-29E, Höhe: 111 m

Beobachtung

Neuester Wetterbericht von vor 20 Minuten, um 05:30 UTC
Wind 11 kt aus West/Südwest
Temperatur 7°C
Luftfeuchtigkeit 87%
Luftdruck 1018 hPa
Sichtweite 10 km oder mehr
Leicht bewölkt in der Höhe von 2000 ft

METAR: LFAQ 260530Z AUTO 24011KT 9999 FEW020 07/05 Q1018 TEMPO 25015G25KT

Zeit: 07:50 (05:50 UTC)

Prognose

Neuester Wetterbericht von vor 50 Minuten, um 05:00 UTC
Gültige Prognose vom 26 um 06 UTC bis 26 um 15 UTC
Wind 10 kt aus West/Südwest
Sichtweite 10 km oder mehr
Aufgelockert bewölkt in der Höhe von 2500 ft
Zeitweise
vom 26 um 06 UTC bis 26 um 15 UTC
Wind 15 kt aus West/Südwest, Böen bis zu 25 kt

TAF: LFAQ 260500Z 2606/2615 25010KT 9999 SCT025 TEMPO 2606/2615 25015G25KT

Wetterbeobachtungen und Prognosen von mehr als 4000 Flughäfen (METAR und TAF Bericht).

Die verfügbaren Stationen werden durch gelbe und rote Markierungen auf der Karte dargestellt.

Führen Sie die Maus auf sie, um den Namen der Station zu sehen.

Darauf klicken, um die Beobachtung von Wetterbeobachtungen und Prognosen zu sehen.

Um die Karte zu ändern : klicken Sie auf den grünen Tasten mit einem schwarzen Kreuz Zum Vergrößern, auf den grünen Button mit einem Gedankenstrich zu verkleinern, oder auf die grünen Pfeile für benachbarte Karten.


METAR-TAF: